Main page
METAR-TAF:

METAR-TAF

Airports :

Wellington International Airport

Wellington, New Zealand

latitude: 41-20S, longitude: 174-48E, elevation: 12 m

Current weather observation

The report was made 32 minutes ago, at 06:00 UTC
Wind 11 kt from the North
Temperature 14°C
Humidity 67%
Pressure 1019 hPa
Visibility 10 km or more

METAR: NZWN 170600Z AUTO 35011KT 9999 BKN080/// OVC095/// 14/08 Q1019 NOSIG

Time: 19:32 (06:32 UTC)

Forecast

The report was made 1 hour and 29 minutes ago, at 05:03 UTC
Forecast valid from 17 at 06 UTC to 18 at 06 UTC
Wind 12 kt from the North
Visibility 10 km or more
Scattered clouds at a height of 5000 ft
From 17 at 2100 UTC
Wind 18 kt from the South with gusts up to 30 kt
Visibility 10 km or more
Broken clouds at a height of 2000 ft
light rain showers

TAF: NZWN 170503Z 1706/1806 36012KT 9999 SCT050 FM172100 18018G30KT 9999 -SHRA BKN020

Weather observations and forecasts of more than 4000 airports (METAR and TAF reports).

The available stations are represented by yellow and red dots on the map.

Hover mouse over dot to see the name of the station.

Then click to see weather observations and forecasts.

To change the map : click on the green buttons with a black cross to zoom in, on the green button with a dash to zoom out, or on the green arrows for adjacent maps.


METAR-TAF: